sim
Sign-in with your pilot id or email,
or register
Callsign
Passwort

Schedule Details

Flight Number: OEO3490
Departure: Cologne Bonn Airport (EDDK) at 04:15
Arrival: Thessaloniki International Airport (LGTS) at 06:55

Weather Information
Getting current METAR information for EDDK 211050Z 24003KT 140V310 CAVOK 11/05 Q1028 NOSIG
Getting current METAR information for LGTS 211050Z 34016KT CAVOK 16/M01 Q1023 NOSIG

Schedule Frequency

Route Map